Time;durP1;ratioP1;P1;durP2;ratioP2;P2;SDS_P1;SDS_P2;PMS_P1;PMS_P2;Temp;Humidity;BMP_temperature;BMP_pressure;BME280_temperature;BME280_humidity;BME280_pressure;Samples;Min_cycle;Max_cycle;Signal;HPM_P1;HPM_P2
2023/09/19 00:00:28;;;;;;;3.95;1.30;;;16.50;99.90;;;;;;5070828;28;20144;-73
2023/09/19 00:02:54;;;;;;;5.03;1.27;;;16.40;99.90;;;;;;5087570;28;20674;-73
2023/09/19 00:05:24;;;;;;;3.80;1.27;;;16.40;99.90;;;;;;5070512;28;20123;-73
2023/09/19 00:07:53;;;;;;;4.32;1.35;;;16.30;99.90;;;;;;5066038;28;20487;-73
2023/09/19 00:10:21;;;;;;;3.58;1.50;;;16.30;99.90;;;;;;5062201;28;20036;-73
2023/09/19 00:12:47;;;;;;;3.67;1.38;;;16.30;99.90;;;;;;5049679;28;20105;-73
2023/09/19 00:15:13;;;;;;;4.25;1.42;;;16.30;99.90;;;;;;5086837;28;20643;-73
2023/09/19 00:17:40;;;;;;;3.70;1.50;;;16.30;99.90;;;;;;5064877;28;20044;-73
2023/09/19 00:20:11;;;;;;;6.20;1.70;;;16.20;99.90;;;;;;5063283;28;20093;-73
2023/09/19 00:22:40;;;;;;;4.07;1.45;;;16.20;99.90;;;;;;5060431;28;20079;-73
2023/09/19 00:25:06;;;;;;;5.00;1.40;;;16.20;99.90;;;;;;5068531;28;20035;-74
2023/09/19 00:27:33;;;;;;;5.40;1.60;;;16.20;99.90;;;;;;5064737;28;20139;-72
2023/09/19 00:30:00;;;;;;;4.95;1.90;;;16.20;99.90;;;;;;5068173;28;20494;-72
2023/09/19 00:32:31;;;;;;;4.43;1.80;;;16.20;99.90;;;;;;5063513;28;20055;-72
2023/09/19 00:34:57;;;;;;;5.05;1.70;;;16.20;99.90;;;;;;5069414;28;20048;-72
2023/09/19 00:37:23;;;;;;;6.75;1.77;;;16.10;99.90;;;;;;5061230;28;20437;-72
2023/09/19 00:39:48;;;;;;;6.50;2.00;;;16.10;99.90;;;;;;5066948;28;20040;-72
2023/09/19 00:42:20;;;;;;;5.78;2.00;;;16.10;99.90;;;;;;5062984;28;20039;-72
2023/09/19 00:44:47;;;;;;;6.63;2.30;;;16.00;99.90;;;;;;5056658;28;20092;-72
2023/09/19 00:47:17;;;;;;;6.28;1.80;;;16.00;99.90;;;;;;5059524;28;20045;-72
2023/09/19 00:49:49;;;;;;;5.10;2.00;;;16.00;99.90;;;;;;5081159;28;20036;-72
2023/09/19 00:52:15;;;;;;;3.30;1.60;;;15.90;99.90;;;;;;5066854;28;20054;-72
2023/09/19 00:54:41;;;;;;;6.43;1.90;;;15.90;99.90;;;;;;5069733;28;20098;-72
2023/09/19 00:57:08;;;;;;;8.60;2.40;;;15.90;99.90;;;;;;5085084;28;20056;-72
2023/09/19 00:59:35;;;;;;;6.57;2.00;;;15.90;99.90;;;;;;5068966;28;20036;-72
2023/09/19 01:02:02;;;;;;;5.90;2.10;;;15.90;99.90;;;;;;5062723;28;20044;-72
2023/09/19 01:04:30;;;;;;;8.23;2.15;;;15.90;99.90;;;;;;5063519;28;20052;-72
2023/09/19 01:06:57;;;;;;;6.28;2.10;;;15.80;99.90;;;;;;5064132;28;20411;-72
2023/09/19 01:09:23;;;;;;;8.55;2.50;;;15.80;99.90;;;;;;5069615;28;20040;-72
2023/09/19 01:11:53;;;;;;;8.15;2.28;;;15.80;99.90;;;;;;5066082;28;20560;-72
2023/09/19 01:14:42;;;;;;;8.07;2.78;;;15.70;99.90;;;;;;5083217;28;20040;-72
2023/09/19 01:17:23;;;;;;;8.77;2.95;;;15.70;99.90;;;;;;5062972;28;20077;-72
2023/09/19 01:20:08;;;;;;;9.77;2.45;;;15.70;99.90;;;;;;5060751;28;20066;-72
2023/09/19 01:22:48;;;;;;;8.50;3.30;;;15.70;99.90;;;;;;5063416;28;20062;-72
2023/09/19 01:25:43;;;;;;;8.55;2.80;;;15.70;99.90;;;;;;5061003;28;20047;-72
2023/09/19 01:28:40;;;;;;;9.77;3.00;;;15.70;99.90;;;;;;5082558;28;20044;-72
2023/09/19 01:31:10;;;;;;;10.95;2.90;;;15.70;99.90;;;;;;4985381;28;20064;-72
2023/09/19 01:34:04;;;;;;;8.65;2.80;;;15.70;99.90;;;;;;5066212;28;20176;-72
2023/09/19 01:36:35;;;;;;;8.70;2.80;;;15.70;99.90;;;;;;5066069;28;20048;-72
2023/09/19 01:39:10;;;;;;;10.05;2.67;;;15.70;99.90;;;;;;5062008;28;20502;-72
2023/09/19 01:41:39;;;;;;;7.28;2.60;;;15.70;99.90;;;;;;5057978;28;20062;-72
2023/09/19 01:44:09;;;;;;;10.68;2.63;;;15.70;99.90;;;;;;5070037;28;20051;-72
2023/09/19 01:46:40;;;;;;;8.38;2.65;;;15.70;99.90;;;;;;5056713;28;20395;-72
2023/09/19 01:49:28;;;;;;;10.52;3.03;;;15.70;99.90;;;;;;5080665;28;20119;-72
2023/09/19 01:52:16;;;;;;;8.40;2.42;;;15.70;99.90;;;;;;5059079;28;20078;-72
2023/09/19 01:54:52;;;;;;;8.88;2.95;;;15.70;99.90;;;;;;5067408;28;20058;-72
2023/09/19 01:57:22;;;;;;;9.00;2.60;;;15.70;99.90;;;;;;5085337;28;20032;-72
2023/09/19 02:00:07;;;;;;;8.32;2.88;;;15.70;99.90;;;;;;5063101;28;20365;-72
2023/09/19 02:02:39;;;;;;;9.07;2.72;;;15.70;99.90;;;;;;5071922;28;20129;-72
2023/09/19 02:05:06;;;;;;;9.18;3.00;;;15.70;99.90;;;;;;5093004;28;20040;-72
2023/09/19 02:07:32;;;;;;;9.83;2.70;;;15.70;99.90;;;;;;5086177;28;20059;-72
2023/09/19 02:10:05;;;;;;;8.43;2.60;;;15.60;99.90;;;;;;5092769;28;20378;-72
2023/09/19 02:12:30;;;;;;;9.48;2.95;;;15.60;99.90;;;;;;5064999;28;20051;-72
2023/09/19 02:14:57;;;;;;;11.35;2.83;;;15.60;99.90;;;;;;5070000;28;20040;-72
2023/09/19 02:17:25;;;;;;;8.57;3.13;;;15.60;99.90;;;;;;5069555;28;20052;-72
2023/09/19 02:19:53;;;;;;;9.73;3.40;;;15.60;99.90;;;;;;5073480;28;20306;-72
2023/09/19 02:22:18;;;;;;;9.70;2.80;;;15.50;99.90;;;;;;5090312;28;20159;-72
2023/09/19 02:24:45;;;;;;;9.77;2.88;;;15.50;99.90;;;;;;5072042;28;20499;-72
2023/09/19 02:27:12;;;;;;;;;;;15.50;99.90;;;;;;5069291;28;20036;-73
2023/09/19 02:29:38;;;;;;;8.82;2.65;;;15.40;99.90;;;;;;5087078;28;19966;-72
2023/09/19 02:32:04;;;;;;;7.90;2.90;;;15.40;99.90;;;;;;5070413;28;20052;-72
2023/09/19 02:34:29;;;;;;;7.40;2.67;;;15.40;99.90;;;;;;5066449;28;20044;-73
2023/09/19 02:36:56;;;;;;;9.50;2.75;;;15.40;99.90;;;;;;5068800;28;20618;-73
2023/09/19 02:39:23;;;;;;;9.27;2.67;;;15.40;99.90;;;;;;5091006;28;20456;-73
2023/09/19 02:41:49;;;;;;;;;;;15.40;99.90;;;;;;5066222;28;20218;-73
2023/09/19 02:44:14;;;;;;;8.70;2.65;;;15.30;99.90;;;;;;5089836;28;20290;-73
2023/09/19 02:46:40;;;;;;;10.05;3.03;;;15.30;99.90;;;;;;5069505;28;20035;-72
2023/09/19 02:49:06;;;;;;;8.10;2.40;;;15.30;99.90;;;;;;5071110;28;20462;-72
2023/09/19 02:51:33;;;;;;;8.55;2.50;;;15.30;99.90;;;;;;5079264;28;20461;-73
2023/09/19 02:54:03;;;;;;;9.88;2.50;;;15.30;99.90;;;;;;5061735;28;20046;-73
2023/09/19 02:56:30;;;;;;;7.82;2.60;;;15.30;99.90;;;;;;5071697;28;20040;-72
2023/09/19 02:58:56;;;;;;;7.05;2.15;;;15.30;99.90;;;;;;5066711;28;20448;-73
2023/09/19 03:01:22;;;;;;;8.95;2.45;;;15.20;99.90;;;;;;5071571;28;20518;-72
2023/09/19 03:03:48;;;;;;;8.80;2.50;;;15.20;99.90;;;;;;5085148;28;20052;-73
2023/09/19 03:06:14;;;;;;;10.02;2.65;;;15.20;99.90;;;;;;5064166;28;20050;-72
2023/09/19 03:08:42;;;;;;;9.60;2.60;;;15.20;99.90;;;;;;5060082;28;20360;-72
2023/09/19 03:11:09;;;;;;;;;;;15.20;99.90;;;;;;5063530;28;20045;-73
2023/09/19 03:13:37;;;;;;;7.63;2.15;;;15.20;99.90;;;;;;5061600;28;20028;-73
2023/09/19 03:16:05;;;;;;;8.38;2.83;;;15.20;99.90;;;;;;5064646;28;20487;-72
2023/09/19 03:18:33;;;;;;;7.60;2.17;;;15.20;99.90;;;;;;5067681;28;20339;-72
2023/09/19 03:20:59;;;;;;;7.82;2.10;;;15.20;99.90;;;;;;5065897;28;20121;-73
2023/09/19 03:23:26;;;;;;;11.65;2.63;;;15.20;99.90;;;;;;5068405;28;20478;-73
2023/09/19 03:25:55;;;;;;;10.57;2.93;;;15.20;99.90;;;;;;5069549;28;20044;-72
2023/09/19 03:28:22;;;;;;;8.45;2.63;;;15.20;99.90;;;;;;5058067;28;20318;-72
2023/09/19 03:31:02;;;;;;;7.28;2.38;;;15.20;99.90;;;;;;5086217;28;20047;-72
2023/09/19 03:33:27;;;;;;;8.35;2.47;;;15.20;99.90;;;;;;5051957;28;20044;-73
2023/09/19 03:35:54;;;;;;;10.05;3.08;;;15.10;99.90;;;;;;5063570;28;20616;-72
2023/09/19 03:38:21;;;;;;;8.50;2.45;;;15.10;99.90;;;;;;5069278;28;20105;-73
2023/09/19 03:40:47;;;;;;;8.98;2.45;;;15.10;99.90;;;;;;5069988;28;20055;-73
2023/09/19 03:43:14;;;;;;;9.40;3.10;;;15.10;99.90;;;;;;5069443;28;20548;-73
2023/09/19 03:45:40;;;;;;;12.70;2.70;;;15.00;99.90;;;;;;5065172;28;20264;-72
2023/09/19 03:48:09;;;;;;;7.97;2.60;;;15.00;99.90;;;;;;5081193;28;20032;-73
2023/09/19 03:50:35;;;;;;;7.82;2.30;;;15.00;99.90;;;;;;5067068;28;20123;-73
2023/09/19 03:53:01;;;;;;;9.32;2.80;;;15.10;99.90;;;;;;5068493;28;20214;-72
2023/09/19 03:55:26;;;;;;;8.90;2.58;;;15.10;99.90;;;;;;5072171;28;20036;-72
2023/09/19 03:57:52;;;;;;;7.18;2.47;;;15.10;99.90;;;;;;5071866;28;20043;-73
2023/09/19 04:00:21;;;;;;;9.07;3.10;;;15.10;99.90;;;;;;5086718;28;20108;-73
2023/09/19 04:02:48;;;;;;;10.70;3.08;;;15.10;99.90;;;;;;5069760;28;20055;-73
2023/09/19 04:05:14;;;;;;;11.23;2.90;;;15.20;99.90;;;;;;5066770;28;20153;-72
2023/09/19 04:07:40;;;;;;;8.68;2.78;;;15.20;99.90;;;;;;5069689;28;20128;-73
2023/09/19 04:10:08;;;;;;;14.05;3.83;;;15.20;99.90;;;;;;5069959;28;20048;-73
2023/09/19 04:12:34;;;;;;;9.18;2.90;;;15.20;99.90;;;;;;5067367;28;20048;-73
2023/09/19 04:15:00;;;;;;;8.40;2.65;;;15.20;99.90;;;;;;5071345;28;20050;-73
2023/09/19 04:17:25;;;;;;;10.07;2.88;;;15.20;99.90;;;;;;5064561;28;20044;-72
2023/09/19 04:19:51;;;;;;;9.63;2.97;;;15.20;99.90;;;;;;5071445;28;20032;-72
2023/09/19 04:22:17;;;;;;;10.38;3.03;;;15.30;99.90;;;;;;5069837;28;20518;-72
2023/09/19 04:24:43;;;;;;;12.20;3.40;;;15.20;99.90;;;;;;5062472;28;20058;-72
2023/09/19 04:27:09;;;;;;;10.00;2.97;;;15.20;99.90;;;;;;5065505;28;20433;-73
2023/09/19 04:29:35;;;;;;;10.30;3.20;;;15.20;99.90;;;;;;5083322;28;20040;-72
2023/09/19 04:32:04;;;;;;;9.60;3.53;;;15.30;99.90;;;;;;5063337;28;20395;-72
2023/09/19 04:34:30;;;;;;;12.75;3.33;;;15.20;99.90;;;;;;5070703;28;20102;-72
2023/09/19 04:36:58;;;;;;;13.95;2.95;;;15.20;99.90;;;;;;5069646;28;20089;-72
2023/09/19 04:39:25;;;;;;;11.52;3.20;;;15.20;99.90;;;;;;5063983;28;20131;-72
2023/09/19 04:41:52;;;;;;;10.98;3.17;;;15.20;99.90;;;;;;5061872;28;20059;-72
2023/09/19 04:44:18;;;;;;;12.23;2.90;;;15.20;99.90;;;;;;5060688;28;20036;-73
2023/09/19 04:46:46;;;;;;;11.13;3.30;;;15.10;99.90;;;;;;5054400;28;20123;-72
2023/09/19 04:49:12;;;;;;;11.90;3.30;;;15.20;99.90;;;;;;5071451;28;20104;-72
2023/09/19 04:51:38;;;;;;;13.90;3.47;;;15.20;99.90;;;;;;5067819;28;20131;-72
2023/09/19 04:54:04;;;;;;;11.45;3.05;;;15.10;99.90;;;;;;5079035;28;20040;-72
2023/09/19 04:56:30;;;;;;;10.80;2.95;;;15.10;99.90;;;;;;5087703;28;20036;-72
2023/09/19 04:58:58;;;;;;;15.52;3.58;;;15.10;99.90;;;;;;5085148;28;20430;-72
2023/09/19 05:01:24;;;;;;;11.88;3.10;;;15.10;99.90;;;;;;5062937;28;20091;-72
2023/09/19 05:03:53;;;;;;;11.23;3.20;;;15.10;99.90;;;;;;5063738;28;20161;-72
2023/09/19 05:06:22;;;;;;;10.93;3.22;;;15.10;99.90;;;;;;5069555;28;20047;-72
2023/09/19 05:08:51;;;;;;;15.23;3.85;;;15.00;99.90;;;;;;5068219;28;20445;-71
2023/09/19 05:11:21;;;;;;;11.73;2.92;;;15.00;99.90;;;;;;5063000;28;20366;-72
2023/09/19 05:13:47;;;;;;;17.17;3.70;;;15.00;99.90;;;;;;5064318;28;20566;-72
2023/09/19 05:16:13;;;;;;;11.03;3.30;;;15.00;99.90;;;;;;5066331;28;20052;-72
2023/09/19 05:18:39;;;;;;;10.05;2.90;;;15.00;99.90;;;;;;5065360;28;20323;-72
2023/09/19 05:21:05;;;;;;;12.00;3.08;;;15.00;99.90;;;;;;5082514;28;20044;-72
2023/09/19 05:23:31;;;;;;;12.38;3.60;;;14.90;99.90;;;;;;5056128;28;20044;-72
2023/09/19 05:25:59;;;;;;;12.80;3.60;;;15.00;99.90;;;;;;5069290;28;20134;-72
2023/09/19 05:28:28;;;;;;;16.30;3.42;;;14.90;99.90;;;;;;5064138;28;20047;-72
2023/09/19 05:30:53;;;;;;;14.23;3.10;;;14.90;99.90;;;;;;5069545;28;20058;-72
2023/09/19 05:33:19;;;;;;;18.40;3.53;;;14.90;99.90;;;;;;5082306;28;20390;-71
2023/09/19 05:35:47;;;;;;;12.13;3.03;;;14.90;99.90;;;;;;5057259;28;20044;-70
2023/09/19 05:38:13;;;;;;;12.82;3.05;;;14.90;99.90;;;;;;5074838;28;20039;-71
2023/09/19 05:40:42;;;;;;;13.48;3.60;;;14.90;99.90;;;;;;5064811;28;20097;-71
2023/09/19 05:43:08;;;;;;;11.70;2.95;;;14.80;99.90;;;;;;5058935;28;20397;-71
2023/09/19 05:45:36;;;;;;;11.85;3.35;;;14.80;99.90;;;;;;5071790;28;20790;-72
2023/09/19 05:48:16;;;;;;;12.50;4.03;;;14.80;99.90;;;;;;5063791;28;20040;-73
2023/09/19 05:50:43;;;;;;;11.73;3.10;;;14.80;99.90;;;;;;5059698;28;20043;-71
2023/09/19 05:53:11;;;;;;;12.27;3.00;;;14.80;99.90;;;;;;5075264;28;20075;-71
2023/09/19 05:55:37;;;;;;;11.07;3.05;;;14.80;99.90;;;;;;5084565;28;20040;-71
2023/09/19 05:58:03;;;;;;;14.80;3.20;;;14.80;99.90;;;;;;5062399;28;20169;-70
2023/09/19 06:00:29;;;;;;;13.80;3.47;;;14.70;99.90;;;;;;5062864;28;20109;-71
2023/09/19 06:02:57;;;;;;;12.93;2.95;;;14.70;99.90;;;;;;5062758;28;20067;-71
2023/09/19 06:05:24;;;;;;;9.55;2.72;;;14.70;99.90;;;;;;5082088;28;20603;-71
2023/09/19 06:07:52;;;;;;;13.10;3.50;;;14.70;99.90;;;;;;5062746;28;20048;-70
2023/09/19 06:10:17;;;;;;;11.13;3.17;;;14.70;99.90;;;;;;5065323;28;20048;-69
2023/09/19 06:12:46;;;;;;;12.02;3.35;;;14.80;99.90;;;;;;5080847;28;20036;-70
2023/09/19 06:15:18;;;;;;;12.85;3.08;;;14.80;99.90;;;;;;5064816;28;20048;-71
2023/09/19 06:17:55;;;;;;;12.68;3.10;;;14.80;99.90;;;;;;5067889;28;20516;-70
2023/09/19 06:20:23;;;;;;;10.60;3.20;;;14.90;99.90;;;;;;5056556;28;20066;-70
2023/09/19 06:22:49;;;;;;;11.75;3.42;;;14.90;99.90;;;;;;5063453;28;20440;-71
2023/09/19 06:25:19;;;;;;;12.45;3.20;;;14.90;99.90;;;;;;5082193;28;20398;-71
2023/09/19 06:27:53;;;;;;;12.00;2.95;;;15.00;99.90;;;;;;5059555;28;20082;-71
2023/09/19 06:30:20;;;;;;;15.05;3.55;;;15.10;99.90;;;;;;5055906;28;20097;-71
2023/09/19 06:32:46;;;;;;;14.18;3.47;;;15.10;99.90;;;;;;5059983;28;20048;-71
2023/09/19 06:35:13;;;;;;;13.52;3.17;;;15.10;99.90;;;;;;5079064;28;20050;-70
2023/09/19 06:37:40;;;;;;;11.48;3.20;;;15.10;99.90;;;;;;5064771;28;20043;-72
2023/09/19 06:40:14;;;;;;;10.82;3.40;;;15.10;99.90;;;;;;5062716;28;20562;-73
2023/09/19 06:42:56;;;;;;;15.50;3.45;;;15.10;99.90;;;;;;5068350;28;20459;-73
2023/09/19 06:45:22;;;;;;;11.13;3.40;;;15.10;99.90;;;;;;5063969;28;20415;-73
2023/09/19 06:47:49;;;;;;;12.38;3.38;;;15.10;99.90;;;;;;5058765;28;20036;-72
2023/09/19 06:50:19;;;;;;;10.23;2.72;;;15.10;99.90;;;;;;5067039;28;20126;-72
2023/09/19 06:52:50;;;;;;;13.90;3.17;;;15.10;99.90;;;;;;5062158;28;20048;-72
2023/09/19 06:55:16;;;;;;;9.88;3.13;;;15.10;99.90;;;;;;5062132;28;20113;-72
2023/09/19 06:57:45;;;;;;;12.33;2.97;;;15.10;99.90;;;;;;5087866;28;20056;-73
2023/09/19 07:00:15;;;;;;;13.38;3.28;;;15.10;99.90;;;;;;5066441;28;20044;-73
2023/09/19 07:02:45;;;;;;;13.93;3.38;;;15.10;99.90;;;;;;5060637;28;20402;-71
2023/09/19 07:05:11;;;;;;;13.48;3.65;;;15.20;99.90;;;;;;5082004;28;20363;-71
2023/09/19 07:07:37;;;;;;;14.65;3.33;;;15.10;99.90;;;;;;5060525;28;20040;-70
2023/09/19 07:10:07;;;;;;;11.73;3.53;;;15.20;99.90;;;;;;5061855;28;20048;-69
2023/09/19 07:12:33;;;;;;;13.57;2.83;;;15.20;99.90;;;;;;5071848;28;20063;-71
2023/09/19 07:14:58;;;;;;;10.52;2.95;;;15.20;99.90;;;;;;5086003;28;20040;-70
2023/09/19 07:17:24;;;;;;;13.25;3.10;;;15.30;99.90;;;;;;5089524;28;20050;-69
2023/09/19 07:19:50;;;;;;;14.05;3.17;;;15.30;99.90;;;;;;5085708;28;20063;-70
2023/09/19 07:22:16;;;;;;;12.30;3.17;;;15.30;99.90;;;;;;5063190;28;20044;-70
2023/09/19 07:24:42;;;;;;;13.43;3.42;;;15.40;99.90;;;;;;5071988;28;20054;-71
2023/09/19 07:27:08;;;;;;;13.45;3.00;;;15.50;99.90;;;;;;5071607;28;20127;-71
2023/09/19 07:29:34;;;;;;;11.43;3.22;;;15.60;99.90;;;;;;5073654;28;20139;-70
2023/09/19 07:32:00;;;;;;;10.93;3.22;;;15.60;99.90;;;;;;5072132;28;20048;-71
2023/09/19 07:34:25;;;;;;;11.55;3.17;;;15.70;99.90;;;;;;5090507;28;20055;-71
2023/09/19 07:36:51;;;;;;;13.77;3.17;;;15.70;99.90;;;;;;5069752;28;20380;-71
2023/09/19 07:39:17;;;;;;;11.52;3.03;;;15.70;99.90;;;;;;5062161;28;20046;-71
2023/09/19 07:41:43;;;;;;;13.55;3.40;;;15.80;99.90;;;;;;5038427;28;20139;-71
2023/09/19 07:44:10;;;;;;;15.85;3.90;;;15.80;99.90;;;;;;5061272;28;20047;-70
2023/09/19 07:46:36;;;;;;;15.90;3.97;;;15.90;99.90;;;;;;5069741;28;20040;-72
2023/09/19 07:49:01;;;;;;;12.43;3.22;;;15.90;99.90;;;;;;5085426;28;20483;-72
2023/09/19 07:51:27;;;;;;;12.57;3.63;;;15.90;99.90;;;;;;5069326;28;20075;-73
2023/09/19 07:53:54;;;;;;;16.13;3.53;;;16.00;99.90;;;;;;5064488;28;20290;-72
2023/09/19 07:56:20;;;;;;;;;;;16.10;99.90;;;;;;5067925;28;20040;-71
2023/09/19 07:58:46;;;;;;;13.68;3.55;;;16.10;99.90;;;;;;5069264;28;19920;-72
2023/09/19 08:01:14;;;;;;;14.65;3.83;;;16.10;99.90;;;;;;5067174;28;20087;-72
2023/09/19 08:03:41;;;;;;;15.52;3.63;;;16.20;99.90;;;;;;5064154;28;20079;-70
2023/09/19 08:06:07;;;;;;;12.65;3.00;;;16.20;99.90;;;;;;5059008;28;20040;-72
2023/09/19 08:08:36;;;;;;;12.63;3.03;;;16.30;99.90;;;;;;5071436;28;20490;-72
2023/09/19 08:11:10;;;;;;;11.57;3.00;;;16.30;99.90;;;;;;5091006;28;20051;-72
2023/09/19 08:13:43;;;;;;;12.77;2.70;;;16.40;99.90;;;;;;5066832;28;20525;-71
2023/09/19 08:16:10;;;;;;;10.68;3.38;;;16.40;99.90;;;;;;5071995;28;20048;-71
2023/09/19 08:18:37;;;;;;;12.25;3.28;;;16.50;99.90;;;;;;5090313;28;20051;-72
2023/09/19 08:21:03;;;;;;;13.65;3.08;;;16.50;99.90;;;;;;5089806;28;20040;-71
2023/09/19 08:23:29;;;;;;;11.63;3.03;;;16.50;99.90;;;;;;5085768;28;20040;-71
2023/09/19 08:25:58;;;;;;;11.05;3.17;;;16.40;99.90;;;;;;5071907;28;20047;-71
2023/09/19 08:28:24;;;;;;;11.45;2.83;;;16.50;99.90;;;;;;5071754;28;20060;-71
2023/09/19 08:30:51;;;;;;;13.27;3.10;;;16.50;99.90;;;;;;5068190;28;20483;-74
2023/09/19 08:33:17;;;;;;;16.92;3.63;;;16.60;99.90;;;;;;5056249;28;20052;-75
2023/09/19 08:35:43;;;;;;;13.15;3.42;;;16.60;99.90;;;;;;5067598;28;20047;-75
2023/09/19 08:38:13;;;;;;;11.82;3.35;;;16.60;99.90;;;;;;5070183;28;20040;-75
2023/09/19 08:40:40;;;;;;;13.70;2.90;;;16.70;99.90;;;;;;5069964;28;20109;-75
2023/09/19 08:43:07;;;;;;;11.88;3.15;;;16.70;99.90;;;;;;5068142;28;20032;-72
2023/09/19 08:45:33;;;;;;;13.30;3.30;;;16.70;99.90;;;;;;5085497;28;20047;-75
2023/09/19 08:48:14;;;;;;;14.23;3.40;;;16.80;99.90;;;;;;5065437;28;20589;-76
2023/09/19 08:50:51;;;;;;;13.00;3.65;;;16.80;99.90;;;;;;5090197;28;20044;-76
2023/09/19 08:53:23;;;;;;;;;;;16.90;99.90;;;;;;5065112;28;20127;-76
2023/09/19 08:55:53;;;;;;;14.73;3.55;;;16.90;99.90;;;;;;5069832;28;19971;-75
2023/09/19 08:58:21;;;;;;;15.15;3.95;;;16.90;99.90;;;;;;5073360;28;20048;-78
2023/09/19 09:00:49;;;;;;;;;;;17.00;99.90;;;;;;5067550;28;20044;-72
2023/09/19 09:03:19;;;;;;;15.95;3.47;;;17.00;99.90;;;;;;5063862;28;19947;-73
2023/09/19 09:05:47;;;;;;;14.40;3.88;;;17.00;99.90;;;;;;5087814;28;20071;-72
2023/09/19 09:08:14;;;;;;;11.13;3.22;;;17.10;99.90;;;;;;5066604;28;20054;-72
2023/09/19 09:10:40;;;;;;;15.20;3.63;;;17.10;99.90;;;;;;5062775;28;20082;-72
2023/09/19 09:13:06;;;;;;;15.32;3.85;;;17.10;99.90;;;;;;5069004;28;20046;-72
2023/09/19 09:15:35;;;;;;;13.77;3.70;;;17.20;99.90;;;;;;5069883;28;20044;-73
2023/09/19 09:18:04;;;;;;;11.32;3.20;;;17.30;99.90;;;;;;5088005;28;20152;-72
2023/09/19 09:20:30;;;;;;;10.85;4.07;;;17.30;99.90;;;;;;5070515;28;20560;-72
2023/09/19 09:23:04;;;;;;;14.82;3.88;;;17.40;99.90;;;;;;5083717;28;20040;-71
2023/09/19 09:26:02;;;;;;;13.55;3.35;;;17.40;99.90;;;;;;5066224;28;20048;-73
2023/09/19 09:28:30;;;;;;;13.27;3.63;;;17.50;99.90;;;;;;5074790;28;20055;-74
2023/09/19 09:31:08;;;;;;;12.02;3.05;;;17.50;99.90;;;;;;5073150;28;20547;-74
2023/09/19 09:33:34;;;;;;;12.55;3.15;;;17.50;99.90;;;;;;5088390;28;20044;-74
2023/09/19 09:36:02;;;;;;;11.32;3.80;;;17.60;99.90;;;;;;5085647;28;20044;-74
2023/09/19 09:38:43;;;;;;;15.32;3.65;;;17.70;99.90;;;;;;5064425;28;20042;-74
2023/09/19 09:41:09;;;;;;;13.25;3.50;;;17.70;99.90;;;;;;5076463;28;20039;-74
2023/09/19 09:43:36;;;;;;;10.70;3.20;;;17.80;99.90;;;;;;5066812;28;20044;-72
2023/09/19 09:49:25;;;;;;;14.70;3.90;;;17.90;99.90;;;;;;5088465;28;20054;-71
2023/09/19 09:52:07;;;;;;;14.20;3.83;;;18.00;99.90;;;;;;5059890;28;20048;-71
2023/09/19 09:54:36;;;;;;;12.45;3.13;;;18.00;99.90;;;;;;5064737;28;20532;-71
2023/09/19 10:00:16;;;;;;;13.77;3.05;;;18.10;99.90;;;;;;5042361;28;20048;-72
2023/09/19 10:02:46;;;;;;;16.02;3.70;;;18.20;99.90;;;;;;5062119;28;20529;-73
2023/09/19 10:05:28;;;;;;;11.85;3.25;;;18.20;99.90;;;;;;5073711;28;20048;-72
2023/09/19 10:08:08;;;;;;;13.30;3.45;;;18.30;99.90;;;;;;5065019;28;20051;-72
2023/09/19 10:13:14;;;;;;;12.48;3.40;;;18.30;99.90;;;;;;5064254;28;20055;-71
2023/09/19 10:15:48;;;;;;;12.60;3.03;;;18.30;99.90;;;;;;5063396;28;20074;-71
2023/09/19 10:18:18;;;;;;;15.45;4.20;;;18.30;99.90;;;;;;5073199;28;20047;-70
2023/09/19 10:20:45;;;;;;;13.23;3.55;;;18.40;99.90;;;;;;5069457;28;20067;-72
2023/09/19 10:23:20;;;;;;;13.75;4.00;;;18.40;99.90;;;;;;5074474;28;20484;-71
2023/09/19 10:25:47;;;;;;;14.40;3.75;;;18.50;99.90;;;;;;5060168;28;20689;-71
2023/09/19 10:28:14;;;;;;;15.35;3.50;;;18.40;99.90;;;;;;5071356;28;20169;-71
2023/09/19 10:30:46;;;;;;;13.20;3.60;;;18.40;99.90;;;;;;5066259;28;20567;-73
2023/09/19 10:33:14;;;;;;;13.27;3.88;;;18.40;99.90;;;;;;5064409;28;20053;-74
2023/09/19 10:35:43;;;;;;;12.32;3.60;;;18.40;99.90;;;;;;5047422;28;20059;-75
2023/09/19 10:38:20;;;;;;;8.75;3.25;;;18.50;99.90;;;;;;5068842;28;20519;-75
2023/09/19 10:40:51;;;;;;;15.13;3.70;;;18.60;99.90;;;;;;5061955;28;20097;-77
2023/09/19 10:43:19;;;;;;;14.85;4.00;;;18.60;99.90;;;;;;5072072;28;20458;-73
2023/09/19 10:45:51;;;;;;;12.85;3.42;;;18.70;99.90;;;;;;5083823;28;20052;-73
2023/09/19 10:48:25;;;;;;;11.43;3.22;;;18.70;99.90;;;;;;5060478;28;20635;-73
2023/09/19 10:51:06;;;;;;;11.60;3.42;;;18.70;99.90;;;;;;5073477;28;20617;-73
2023/09/19 10:53:55;;;;;;;11.63;3.38;;;18.80;99.90;;;;;;5087843;28;20040;-73
2023/09/19 10:56:38;;;;;;;12.60;3.15;;;18.90;99.90;;;;;;5086966;28;20123;-74
2023/09/19 10:59:18;;;;;;;18.25;6.50;;;18.90;99.90;;;;;;5059262;28;20051;-74
2023/09/19 11:01:51;;;;;;;11.15;3.28;;;18.90;99.90;;;;;;5073195;28;20048;-73
2023/09/19 11:04:38;;;;;;;12.95;3.33;;;18.90;99.90;;;;;;5069814;28;20089;-72
2023/09/19 11:07:15;;;;;;;13.65;3.60;;;18.90;99.90;;;;;;5066818;28;20049;-72
2023/09/19 11:09:54;;;;;;;8.82;2.95;;;18.90;99.90;;;;;;5057402;28;20096;-72
2023/09/19 11:12:46;;;;;;;8.73;3.20;;;19.00;99.90;;;;;;5062945;28;20610;-72
2023/09/19 11:15:50;;;;;;;16.38;3.47;;;19.00;99.90;;;;;;5063445;28;20040;-72
2023/09/19 11:18:41;;;;;;;8.82;2.70;;;18.90;99.90;;;;;;5086534;28;20047;-71
2023/09/19 11:21:30;;;;;;;12.73;3.40;;;18.90;99.90;;;;;;5069691;28;20052;-72
2023/09/19 11:24:24;;;;;;;14.30;3.03;;;18.80;99.90;;;;;;5067828;28;20483;-74
2023/09/19 11:26:51;;;;;;;11.48;3.15;;;18.80;99.90;;;;;;5064688;28;20046;-72
2023/09/19 11:29:29;;;;;;;10.82;3.28;;;18.80;99.90;;;;;;5063651;28;20590;-72
2023/09/19 11:31:55;;;;;;;9.32;2.83;;;18.80;99.90;;;;;;5067316;28;20059;-71
2023/09/19 11:34:39;;;;;;;14.60;3.10;;;18.80;99.90;;;;;;5069409;28;20580;-70
2023/09/19 11:37:14;;;;;;;10.57;3.10;;;18.80;99.90;;;;;;5090099;28;20437;-71
2023/09/19 11:39:41;;;;;;;10.25;3.10;;;18.80;99.90;;;;;;5065398;28;20049;-71
2023/09/19 11:42:50;;;;;;;9.95;2.83;;;18.90;99.90;;;;;;5071405;28;20051;-71
2023/09/19 11:45:46;;;;;;;10.73;3.00;;;19.00;99.90;;;;;;5058728;28;20114;-71
2023/09/19 11:48:15;;;;;;;11.20;2.72;;;19.00;99.90;;;;;;5089034;28;20052;-72
2023/09/19 11:50:45;;;;;;;12.27;3.15;;;19.00;99.90;;;;;;5059009;28;20044;-71
2023/09/19 11:53:16;;;;;;;10.07;3.13;;;19.10;99.90;;;;;;5087694;28;20065;-71
2023/09/19 11:55:43;;;;;;;12.20;3.25;;;19.20;99.90;;;;;;5087942;28;20126;-72
2023/09/19 11:58:09;;;;;;;12.80;3.13;;;19.20;99.90;;;;;;5070597;28;20479;-71
2023/09/19 12:00:39;;;;;;;10.98;2.90;;;19.30;99.90;;;;;;5066735;28;20151;-72
2023/09/19 12:03:11;;;;;;;12.23;2.90;;;19.30;99.90;;;;;;5071317;28;20109;-73
2023/09/19 12:05:37;;;;;;;13.18;3.38;;;19.30;99.90;;;;;;5074063;28;20142;-72
2023/09/19 12:08:07;;;;;;;10.93;2.60;;;19.40;99.90;;;;;;5064989;28;20048;-72
2023/09/19 12:10:33;;;;;;;10.60;2.78;;;19.40;99.90;;;;;;5062608;28;20063;-77
2023/09/19 12:12:59;;;;;;;11.98;2.95;;;19.40;99.90;;;;;;5077722;28;20036;-73
2023/09/19 12:15:34;;;;;;;11.23;3.35;;;19.40;99.90;;;;;;5058373;28;20044;-73
2023/09/19 12:18:00;;;;;;;11.10;2.72;;;19.40;99.90;;;;;;5082900;28;20050;-73
2023/09/19 12:20:41;;;;;;;12.13;3.08;;;19.50;99.90;;;;;;5069394;28;20661;-73
2023/09/19 12:23:14;;;;;;;12.20;3.30;;;19.50;99.90;;;;;;5065769;28;20048;-73
2023/09/19 12:25:46;;;;;;;10.30;2.78;;;19.50;99.90;;;;;;5069947;28;20056;-73
2023/09/19 12:28:12;;;;;;;13.85;3.08;;;19.40;99.90;;;;;;5086025;28;20044;-73
2023/09/19 12:30:41;;;;;;;12.85;3.42;;;19.40;99.90;;;;;;5071099;28;20044;-73
2023/09/19 12:33:26;;;;;;;13.10;3.53;;;19.30;99.90;;;;;;5067348;28;20059;-75
2023/09/19 12:35:53;;;;;;;13.73;3.30;;;19.40;99.90;;;;;;5058346;28;20309;-75
2023/09/19 12:38:24;;;;;;;9.75;3.10;;;19.40;99.90;;;;;;5069664;28;20044;-75
2023/09/19 12:40:51;;;;;;;8.25;2.55;;;19.50;99.90;;;;;;5080644;28;20048;-73
2023/09/19 12:43:18;;;;;;;13.32;3.10;;;19.60;99.90;;;;;;5088619;28;20048;-73
2023/09/19 12:45:44;;;;;;;9.77;2.70;;;19.70;99.90;;;;;;5068463;28;20101;-73
2023/09/19 12:48:31;;;;;;;9.90;2.78;;;19.80;99.90;;;;;;5069938;28;20125;-74
2023/09/19 12:51:07;;;;;;;15.40;2.97;;;19.80;99.90;;;;;;5069305;28;20052;-74
2023/09/19 12:53:45;;;;;;;7.57;2.50;;;19.80;99.90;;;;;;5069569;28;20499;-74
2023/09/19 12:56:13;;;;;;;9.63;2.50;;;19.80;99.90;;;;;;5065274;28;20102;-74
2023/09/19 12:58:55;;;;;;;12.90;2.70;;;19.70;99.90;;;;;;5066328;28;20105;-74
2023/09/19 13:01:23;;;;;;;10.82;2.88;;;19.60;99.90;;;;;;5064709;28;20036;-75
2023/09/19 13:04:29;;;;;;;8.77;2.28;;;19.60;99.90;;;;;;5063208;28;20056;-76
2023/09/19 13:07:00;;;;;;;8.75;2.50;;;19.50;99.90;;;;;;5027742;28;20410;-76